Time;durP1;ratioP1;P1;durP2;ratioP2;P2;SDS_P1;SDS_P2;PMS_P1;PMS_P2;Temp;Humidity;BMP_temperature;BMP_pressure;BME280_temperature;BME280_humidity;BME280_pressure;Samples;Min_cycle;Max_cycle;Signal;HPM_P1;HPM_P2
2023/06/04 04:31:47;;;;;;;;;3.00;3.00;;;;;19.78;38.53;101333.47;5009763;28;45547;-75
2023/06/04 04:34:14;;;;;;;;;5.50;3.25;;;;;19.79;39.17;101334.31;4983569;28;45361;-74
2023/06/04 04:36:40;;;;;;;;;3.75;3.50;;;;;19.77;39.00;101325.41;4995517;28;45441;-75
2023/06/04 04:39:05;;;;;;;;;3.50;2.75;;;;;19.80;38.99;101331.50;4978458;28;45798;-76
2023/06/04 04:41:32;;;;;;;;;4.00;3.00;;;;;19.80;39.03;101342.38;4995906;28;45405;-75
2023/06/04 04:44:04;;;;;;;;;3.75;3.00;;;;;19.81;39.01;101344.13;4995148;28;45632;-76
2023/06/04 04:46:30;;;;;;;;;2.00;2.00;;;;;19.78;38.25;101336.19;4995797;28;46097;-75
2023/06/04 04:48:57;;;;;;;;;3.00;3.00;;;;;19.74;39.11;101334.66;4995516;28;45279;-76
2023/06/04 04:51:22;;;;;;;;;4.00;1.75;;;;;19.81;38.61;101345.97;4971682;28;45258;-77
2023/06/04 04:53:47;;;;;;;;;6.00;2.00;;;;;19.65;38.83;101316.28;4976760;28;45385;-75
2023/06/04 04:56:13;;;;;;;;;1.50;1.50;;;;;19.82;38.58;101347.72;4995161;28;46230;-76
2023/06/04 04:58:39;;;;;;;;;4.25;2.50;;;;;19.80;38.77;101345.09;4982577;28;45254;-75
2023/06/04 05:01:04;;;;;;;;;3.75;2.50;;;;;19.84;38.45;101343.88;4982887;28;45247;-75
2023/06/04 05:03:29;;;;;;;;;3.00;3.00;;;;;19.86;38.34;101350.06;4995296;28;45376;-75
2023/06/04 05:05:55;;;;;;;;;3.25;3.00;;;;;19.86;38.33;101349.19;4995522;28;46295;-77
2023/06/04 05:08:20;;;;;;;;;7.25;3.50;;;;;19.81;38.46;101343.25;4995801;28;45679;-76
2023/06/04 05:10:45;;;;;;;;;3.00;2.00;;;;;19.79;37.96;101346.09;4995353;28;45520;-75
2023/06/04 05:13:11;;;;;;;;;4.00;2.00;;;;;19.80;38.45;101350.53;4995766;28;45359;-75
2023/06/04 05:15:36;;;;;;;;;4.75;2.25;;;;;19.78;38.34;101347.06;4987100;28;45817;-77
2023/06/04 05:18:03;;;;;;;;;3.25;2.00;;;;;19.81;38.28;101351.41;4995553;28;45254;-75
2023/06/04 05:20:29;;;;;;;;;3.50;1.75;;;;;19.84;38.41;101356.59;4995519;28;45405;-75
2023/06/04 05:22:55;;;;;;;;;1.75;1.75;;;;;19.84;38.64;101362.91;4995196;28;45547;-76
2023/06/04 05:25:21;;;;;;;;;2.25;2.00;;;;;19.82;38.04;101345.00;4994649;28;45542;-75
2023/06/04 05:27:48;;;;;;;;;6.75;4.00;;;;;19.83;38.62;101349.41;4995450;28;45412;-75
2023/06/04 05:30:15;;;;;;;;;2.75;2.00;;;;;19.89;38.75;101362.59;4995299;28;45330;-75
2023/06/04 05:32:40;;;;;;;;;2.00;2.00;;;;;19.88;38.13;101356.28;4994967;28;45361;-75
2023/06/04 05:35:07;;;;;;;;;2.00;2.00;;;;;19.93;38.06;101364.09;4963689;28;47165;-75
2023/06/04 05:37:37;;;;;;;;;3.00;3.00;;;;;19.86;38.01;101352.78;4995151;28;45394;-78
2023/06/04 05:40:05;;;;;;;;;3.75;2.75;;;;;19.89;38.16;101376.19;4995020;28;45529;-75
2023/06/04 05:42:30;;;;;;;;;1.75;1.75;;;;;19.87;38.18;101370.88;4994957;28;45395;-74
2023/06/04 05:44:56;;;;;;;;;2.50;2.00;;;;;19.87;38.56;101372.72;4995057;28;46367;-75
2023/06/04 05:47:22;;;;;;;;;2.00;2.00;;;;;19.85;38.06;101361.94;4994537;28;45378;-73
2023/06/04 05:49:47;;;;;;;;;2.00;2.00;;;;;19.82;37.96;101364.88;4995083;28;45334;-75
2023/06/04 05:52:13;;;;;;;;;1.00;1.00;;;;;19.89;37.95;101374.34;4994698;28;45442;-76
2023/06/04 05:54:40;;;;;;;;;1.75;1.75;;;;;19.93;38.21;101394.91;4994589;28;46201;-74
2023/06/04 05:57:06;;;;;;;;;2.00;2.00;;;;;19.96;38.58;101393.81;4983989;28;52938;-74
2023/06/04 05:59:32;;;;;;;;;3.50;2.00;;;;;19.94;38.30;101388.47;4982903;28;45298;-74
2023/06/04 06:01:57;;;;;;;;;3.25;2.25;;;;;19.98;38.20;101389.13;4994852;28;45504;-75
2023/06/04 06:04:23;;;;;;;;;5.25;2.50;;;;;19.95;38.64;101379.31;4994732;28;46135;-75
2023/06/04 06:06:48;;;;;;;;;2.00;2.00;;;;;20.00;38.30;101384.41;4995105;28;45419;-75
2023/06/04 06:09:15;;;;;;;;;2.75;1.75;;;;;19.97;38.37;101388.25;4995517;28;45401;-75
2023/06/04 06:11:41;;;;;;;;;1.50;1.50;;;;;20.05;38.10;101390.41;4995101;28;46090;-76
2023/06/04 06:14:06;;;;;;;;;3.50;3.00;;;;;20.03;38.10;101385.06;4995106;28;45403;-76
2023/06/04 06:16:32;;;;;;;;;4.00;2.00;;;;;20.09;38.09;101396.47;4994784;28;45447;-75
2023/06/04 06:18:58;;;;;;;;;3.50;2.75;;;;;20.06;37.65;101392.13;4977097;28;45401;-74
2023/06/04 06:21:23;;;;;;;;;7.25;2.00;;;;;20.10;37.80;101395.47;4994846;28;45541;-75
2023/06/04 06:23:49;;;;;;;;;3.50;2.50;;;;;20.12;38.07;101396.25;4994772;28;46297;-76
2023/06/04 06:26:14;;;;;;;;;2.50;2.00;;;;;20.14;38.11;101399.72;4994311;28;45376;-75
2023/06/04 06:28:39;;;;;;;;;4.00;2.00;;;;;20.11;38.04;101392.66;4976598;28;45307;-76
2023/06/04 06:31:05;;;;;;;;;3.25;2.00;;;;;20.17;38.03;101403.06;4993955;28;53448;-76
2023/06/04 06:33:31;;;;;;;;;3.00;2.00;;;;;20.19;38.17;101402.94;4988625;28;45404;-75
2023/06/04 06:35:57;;;;;;;;;3.25;2.25;;;;;20.21;37.74;101404.59;4988313;28;45339;-78
2023/06/04 06:38:22;;;;;;;;;1.25;1.25;;;;;20.22;38.03;101403.59;4994576;28;45366;-77
2023/06/04 06:40:48;;;;;;;;;4.00;2.00;;;;;20.28;37.79;101414.03;4993711;28;54934;-75
2023/06/04 06:43:13;;;;;;;;;3.00;2.00;;;;;20.30;37.64;101406.63;4976266;28;46309;-75
2023/06/04 06:45:38;;;;;;;;;3.25;2.00;;;;;20.32;38.16;101403.78;4994221;28;45228;-75
2023/06/04 06:48:04;;;;;;;;;5.50;2.75;;;;;20.36;38.04;101403.44;4994198;28;45293;-75
2023/06/04 06:50:29;;;;;;;;;3.00;1.75;;;;;20.39;38.13;101397.78;4994104;28;45574;-75
2023/06/04 06:52:55;;;;;;;;;4.00;3.00;;;;;20.41;38.02;101402.25;4994166;28;45380;-76
2023/06/04 06:55:20;;;;;;;;;2.00;2.00;;;;;20.38;37.46;101390.59;4993940;28;45310;-76
2023/06/04 06:57:45;;;;;;;;;2.25;2.25;;;;;20.43;37.58;101402.97;4987771;28;45834;-75
2023/06/04 07:00:11;;;;;;;;;1.75;1.75;;;;;20.42;37.64;101396.66;4986920;28;45406;-77
2023/06/04 07:02:37;;;;;;;;;2.25;2.00;;;;;20.44;37.94;101391.97;4993385;28;45368;-75
2023/06/04 07:05:02;;;;;;;;;3.75;2.50;;;;;20.51;37.79;101397.78;4984416;28;45325;-74
2023/06/04 07:07:28;;;;;;;;;2.50;1.75;;;;;20.54;37.40;101401.16;4996220;28;45381;-76
2023/06/04 07:09:53;;;;;;;;;1.00;1.00;;;;;20.57;37.68;101403.66;4997486;28;45262;-76
2023/06/04 07:12:18;;;;;;;;;3.00;2.75;;;;;20.55;37.76;101396.59;4998465;28;46105;-76
2023/06/04 07:14:44;;;;;;;;;2.75;2.00;;;;;20.61;37.87;101407.00;4998419;28;45569;-78
2023/06/04 07:17:09;;;;;;;;;3.50;2.00;;;;;20.62;37.90;101408.75;4980327;28;45470;-75
2023/06/04 07:19:34;;;;;;;;;0.50;0.50;;;;;20.65;37.85;101411.25;4997381;28;45376;-74
2023/06/04 07:22:00;;;;;;;;;2.00;1.00;;;;;20.63;37.96;101396.88;4997212;28;45451;-77
2023/06/04 07:24:25;;;;;;;;;2.75;1.75;;;;;20.70;37.47;101412.63;4996982;28;45364;-74
2023/06/04 07:26:51;;;;;;;;;1.75;1.75;;;;;20.72;38.01;101407.03;4996881;28;45299;-75
2023/06/04 07:29:17;;;;;;;;;1.75;1.75;;;;;20.72;38.59;101402.47;4997695;28;45266;-75
2023/06/04 07:31:42;;;;;;;;;2.25;2.25;;;;;20.81;37.96;101408.19;4996414;28;45495;-75
2023/06/04 07:34:07;;;;;;;;;2.75;1.50;;;;;20.80;37.76;101407.31;4967062;28;56749;-75
2023/06/04 07:36:33;;;;;;;;;4.00;2.25;;;;;20.83;37.56;101409.81;4995799;28;45446;-74
2023/06/04 07:38:59;;;;;;;;;3.00;3.00;;;;;20.86;38.04;101403.22;4997458;28;45349;-75
2023/06/04 07:41:25;;;;;;;;;2.00;1.50;;;;;20.92;37.95;101411.81;4996465;28;46194;-73
2023/06/04 07:43:51;;;;;;;;;2.50;2.25;;;;;20.92;37.95;101408.22;4990350;28;45325;-78
2023/06/04 07:46:18;;;;;;;;;2.50;2.50;;;;;21.00;37.72;101406.63;4997146;28;45539;-77
2023/06/04 07:48:44;;;;;;;;;4.00;3.00;;;;;20.97;37.76;101401.41;4997156;28;45349;-78
2023/06/04 07:51:11;;;;;;;;;3.00;3.00;;;;;21.03;37.57;101400.91;4996685;28;45400;-76
2023/06/04 07:53:37;;;;;;;;;2.75;2.75;;;;;21.02;38.28;101398.31;4984292;28;45441;-78
2023/06/04 07:56:03;;;;;;;;;2.00;2.00;;;;;21.12;37.89;101404.78;4965815;28;45442;-78
2023/06/04 07:58:29;;;;;;;;;2.75;1.50;;;;;21.18;37.65;101400.75;4986981;28;45525;-76
2023/06/04 08:00:55;;;;;;;;;3.00;3.00;;;;;21.18;37.57;101392.56;4977750;28;46666;-82
2023/06/04 08:03:20;;;;;;;;;1.50;1.50;;;;;21.26;37.26;101399.13;4978697;28;45907;-75
2023/06/04 08:05:45;;;;;;;;;3.00;3.00;;;;;21.30;37.93;101397.00;4997587;28;45552;-77
2023/06/04 08:08:11;;;;;;;;;2.50;1.50;;;;;21.30;37.30;101394.28;4996776;28;45258;-74
2023/06/04 08:10:36;;;;;;;;;1.50;1.50;;;;;21.32;37.35;101393.19;4996328;28;45340;-73
2023/06/04 08:13:03;;;;;;;;;6.75;3.25;;;;;21.34;37.09;101388.47;4978901;28;45372;-73
2023/06/04 08:15:28;;;;;;;;;3.00;2.75;;;;;21.36;36.57;101380.16;4996336;28;45431;-75
2023/06/04 08:17:54;;;;;;;;;2.50;2.50;;;;;21.43;37.61;101395.06;4994981;28;45314;-73
2023/06/04 08:20:19;;;;;;;;;5.00;3.25;;;;;21.42;36.95;101386.00;4978164;28;45303;-73
2023/06/04 08:22:45;;;;;;;;;3.00;2.00;;;;;21.50;37.34;101390.81;4996161;28;45335;-74
2023/06/04 08:25:10;;;;;;;;;2.00;2.00;;;;;21.44;37.00;101381.25;4978330;28;45388;-75
2023/06/04 08:27:37;;;;;;;;;4.50;2.50;;;;;21.45;37.16;101379.41;4996375;28;45571;-75
2023/06/04 08:30:03;;;;;;;;;2.50;2.50;;;;;21.52;37.40;101378.78;4996099;28;45472;-74
2023/06/04 08:32:28;;;;;;;;;3.25;3.25;;;;;21.63;36.73;101396.13;4995995;28;45226;-74
2023/06/04 08:34:54;;;;;;;;;4.00;2.75;;;;;21.66;36.80;101390.44;4982075;28;47116;-75
2023/06/04 08:37:20;;;;;;;;;2.75;2.75;;;;;21.65;36.94;101385.97;4996026;28;45331;-75
2023/06/04 08:39:45;;;;;;;;;2.50;2.50;;;;;21.67;36.96;101379.41;4995819;28;46097;-74
2023/06/04 08:42:31;;;;;;;;;2.75;2.75;;;;;21.76;37.40;101384.09;4996097;28;45359;-77
2023/06/04 08:44:57;;;;;;;;;3.00;3.00;;;;;21.75;36.98;101371.44;4995852;28;45485;-74
2023/06/04 08:47:24;;;;;;;;;2.50;2.50;;;;;21.83;36.78;101384.47;4996705;28;45504;-80
2023/06/04 08:49:53;;;;;;;;;5.75;3.25;;;;;21.87;37.09;101385.91;4996014;28;45608;-77
2023/06/04 08:52:21;;;;;;;;;2.25;1.25;;;;;21.88;35.66;101382.19;4996766;28;45226;-77
2023/06/04 08:54:53;;;;;;;;;3.00;3.00;;;;;21.91;35.77;101384.69;4996097;28;45369;-77
2023/06/04 08:57:19;;;;;;;;;2.75;2.75;;;;;21.99;35.29;101384.94;4992922;28;45388;-74
2023/06/04 08:59:46;;;;;;;;;4.50;3.50;;;;;22.01;35.43;101384.81;4967443;28;46167;-79
2023/06/04 09:02:12;;;;;;;;;2.50;2.50;;;;;21.97;35.22;101372.38;4996106;28;45390;-79
2023/06/04 09:04:39;;;;;;;;;1.25;1.25;;;;;22.11;35.40;101388.53;4995670;28;45396;-74
2023/06/04 09:07:08;;;;;;;;;4.75;1.75;;;;;22.16;35.54;101378.94;4995525;28;45433;-75
2023/06/04 09:09:39;;;;;;;;;3.75;3.25;;;;;22.22;35.70;101380.28;4995334;28;45408;-73
2023/06/04 09:12:10;;;;;;;;;4.50;3.00;;;;;22.21;34.90;101373.94;4981029;28;45574;-73
2023/06/04 09:14:35;;;;;;;;;4.50;2.75;;;;;22.33;34.33;101373.91;4977115;28;45377;-75
2023/06/04 09:17:00;;;;;;;;;2.75;2.75;;;;;22.26;34.54;101363.50;4993007;28;45517;-72
2023/06/04 09:19:26;;;;;;;;;2.75;2.75;;;;;22.38;34.02;101364.31;4995160;28;46190;-73
2023/06/04 09:21:52;;;;;;;;;3.75;3.75;;;;;22.44;34.12;101368.41;4991232;28;45332;-71
2023/06/04 09:24:19;;;;;;;;;4.00;3.00;;;;;22.44;34.12;101369.28;4975704;28;45286;-76
2023/06/04 09:26:45;;;;;;;;;4.25;3.00;;;;;22.59;33.82;101378.00;4983208;28;45578;-80
2023/06/04 09:29:10;;;;;;;;;2.75;2.75;;;;;22.59;32.92;101365.22;4985697;28;46158;-79
2023/06/04 09:31:39;;;;;;;;;3.00;3.00;;;;;22.62;32.89;101361.34;4995331;28;45584;-73
2023/06/04 09:34:05;;;;;;;;;4.75;2.00;;;;;22.69;32.88;101378.09;4984371;28;45209;-78
2023/06/04 09:36:35;;;;;;;;;5.75;2.00;;;;;22.75;33.65;101369.38;4976147;28;45427;-75
2023/06/04 09:39:02;;;;;;;;;2.25;2.25;;;;;22.80;33.49;101369.81;4995746;28;47319;-76
2023/06/04 09:41:28;;;;;;;;;3.00;3.00;;;;;22.82;32.80;101370.56;4995974;28;45781;-74
2023/06/04 09:44:03;;;;;;;;;2.00;2.00;;;;;22.79;33.08;101366.25;4995879;28;46031;-72
2023/06/04 09:46:30;;;;;;;;;4.50;3.00;;;;;22.88;31.78;101373.63;4996284;28;45451;-72
2023/06/04 09:49:04;;;;;;;;;1.50;1.50;;;;;22.92;30.80;101377.84;4995954;28;45473;-74
2023/06/04 09:51:30;;;;;;;;;4.25;2.50;;;;;22.93;30.80;101370.50;4995764;28;45156;-77
2023/06/04 09:54:04;;;;;;;;;2.50;2.50;;;;;22.96;30.93;101371.09;4995116;28;45422;-76
2023/06/04 09:56:39;;;;;;;;;2.00;1.50;;;;;23.06;30.56;101387.53;4994620;28;45253;-77
2023/06/04 09:59:07;;;;;;;;;4.25;2.00;;;;;23.04;29.44;101367.69;4981027;28;46009;-77
2023/06/04 10:01:35;;;;;;;;;1.50;1.50;;;;;23.14;30.10;101393.22;4995113;28;45425;-76
2023/06/04 10:04:03;;;;;;;;;3.50;2.50;;;;;23.09;30.74;101372.75;4994568;28;45417;-78
2023/06/04 10:06:34;;;;;;;;;2.50;2.50;;;;;23.13;30.64;101379.69;4977059;28;46388;-78
2023/06/04 10:09:05;;;;;;;;;3.00;2.25;;;;;23.01;30.66;101355.16;4995074;28;46182;-81
2023/06/04 10:11:47;;;;;;;;;5.75;4.00;;;;;23.23;29.58;101394.25;4986672;28;45352;-78
2023/06/04 10:14:21;;;;;;;;;3.50;2.50;;;;;23.27;30.64;101390.28;4973814;28;45425;-79
2023/06/04 10:16:48;;;;;;;;;2.00;2.00;;;;;23.30;30.15;101393.59;4979263;28;45617;-75
2023/06/04 10:19:15;;;;;;;;;3.50;2.50;;;;;23.27;30.27;101376.59;4959010;28;48221;-78
2023/06/04 10:21:42;;;;;;;;;3.50;2.50;;;;;23.36;30.41;101386.72;4974108;28;45841;-78
2023/06/04 10:24:07;;;;;;;;;3.00;3.00;;;;;23.43;30.34;101389.75;4979206;28;45700;-78
2023/06/04 10:26:35;;;;;;;;;4.50;3.75;;;;;23.46;30.45;101384.03;4973908;28;45532;-79
2023/06/04 10:29:01;;;;;;;;;2.75;2.75;;;;;23.42;29.40;101371.59;4942224;28;48353;-80
2023/06/04 10:31:27;;;;;;;;;3.75;2.50;;;;;23.52;29.47;101380.75;4981552;28;46008;-78
2023/06/04 10:33:56;;;;;;;;;2.00;2.00;;;;;23.50;30.15;101377.28;4973900;28;45350;-77
2023/06/04 10:36:23;;;;;;;;;2.75;2.75;;;;;23.59;30.08;101387.41;4990495;28;45536;-80
2023/06/04 10:38:50;;;;;;;;;3.25;2.50;;;;;23.62;30.23;101381.66;4993421;28;45478;-79
2023/06/04 10:41:17;;;;;;;;;4.25;3.75;;;;;23.61;29.08;101368.97;4995373;28;45350;-77
2023/06/04 10:43:49;;;;;;;;;3.50;3.50;;;;;23.59;29.29;101360.91;4997455;28;45287;-79
2023/06/04 10:46:20;;;;;;;;;2.75;1.75;;;;;23.72;29.30;101382.56;4997404;28;45354;-78
2023/06/04 10:48:54;;;;;;;;;5.00;3.50;;;;;23.69;29.19;101375.50;4981172;28;46023;-82
2023/06/04 10:51:31;;;;;;;;;3.50;2.50;;;;;23.73;28.77;101371.44;4972698;28;45225;-81
2023/06/04 10:53:58;;;;;;;;;2.75;2.00;;;;;23.85;28.02;101385.03;4995761;28;47233;-76
2023/06/04 10:56:37;;;;;;;;;3.00;3.00;;;;;23.87;28.40;101372.94;4984416;28;45480;-77
2023/06/04 10:59:16;;;;;;;;;2.25;2.25;;;;;23.83;28.22;101365.13;4980336;28;46247;-83
2023/06/04 11:01:42;;;;;;;;;3.00;1.50;;;;;23.94;28.15;101365.88;4974051;28;45430;-77
2023/06/04 11:04:21;;;;;;;;;3.00;3.00;;;;;23.99;27.68;101382.75;4977896;28;45476;-80
2023/06/04 11:06:47;;;;;;;;;4.00;4.00;;;;;24.03;27.36;101388.81;4990932;28;45373;-76
2023/06/04 11:09:16;;;;;;;;;3.25;2.00;;;;;24.06;27.54;101361.16;4997599;28;47022;-76
2023/06/04 11:11:43;;;;;;;;;4.00;2.75;;;;;24.08;27.13;101359.13;4979398;28;45727;-78
2023/06/04 11:14:15;;;;;;;;;8.00;3.75;;;;;24.20;27.51;101363.47;4997784;28;45488;-75
2023/06/04 11:16:41;;;;;;;;;1.00;1.00;;;;;24.24;27.84;101366.84;4997353;28;45480;-76
2023/06/04 11:19:06;;;;;;;;;3.25;2.00;;;;;24.36;26.99;101380.25;4997109;28;45386;-78
2023/06/04 11:21:36;;;;;;;;;2.00;2.00;;;;;24.42;26.53;101381.53;4997059;28;45408;-75
2023/06/04 11:24:03;;;;;;;;;2.25;2.25;;;;;24.52;27.44;101382.41;4979471;28;45231;-77
2023/06/04 11:26:33;;;;;;;;;2.00;2.00;;;;;24.61;25.10;101377.91;4997020;28;45668;-77
2023/06/04 11:28:58;;;;;;;;;4.00;2.00;;;;;24.64;25.25;101383.13;4997121;28;45478;-78
2023/06/04 11:31:24;;;;;;;;;2.00;2.00;;;;;24.69;25.87;101386.28;4996732;28;45447;-79
2023/06/04 11:33:49;;;;;;;;;5.75;3.00;;;;;24.73;26.52;101374.03;4970937;28;45385;-79
2023/06/04 11:36:25;;;;;;;;;4.00;2.75;;;;;24.81;25.56;101379.63;4992226;28;45306;-81
2023/06/04 11:39:02;;;;;;;;;4.00;2.25;;;;;24.88;25.97;101381.66;4997147;28;46390;-76
2023/06/04 11:41:29;;;;;;;;;1.75;1.75;;;;;24.97;26.24;101379.94;4996620;28;45476;-80
2023/06/04 11:44:01;;;;;;;;;1.50;1.50;;;;;25.02;26.04;101372.09;4997216;28;45442;-78
2023/06/04 11:46:27;;;;;;;;;2.00;2.00;;;;;25.13;26.25;101373.81;4996589;28;45527;-83
2023/06/04 11:48:53;;;;;;;;;3.25;3.25;;;;;25.22;26.50;101384.78;4978946;28;47691;-83
2023/06/04 11:51:20;;;;;;;;;2.50;2.50;;;;;25.26;26.87;101364.22;4996464;28;45480;-80
2023/06/04 11:53:46;;;;;;;;;2.00;2.00;;;;;25.39;27.13;101365.78;4979225;28;45437;-79
2023/06/04 11:56:12;;;;;;;;;3.25;2.00;;;;;25.57;27.78;101362.09;4996326;28;45542;-81
2023/06/04 11:58:38;;;;;;;;;3.00;2.00;;;;;25.71;26.53;101357.13;4979137;28;47496;-78
2023/06/04 12:01:04;;;;;;;;;2.25;2.25;;;;;25.85;26.11;101365.72;4981767;28;46010;-78
2023/06/04 12:03:41;;;;;;;;;2.75;2.75;;;;;25.99;26.50;101367.94;4996555;28;45483;-82
2023/06/04 12:06:18;;;;;;;;;3.00;3.00;;;;;26.04;25.52;101361.97;4978321;28;45675;-79
2023/06/04 12:08:46;;;;;;;;;1.75;1.75;;;;;26.13;24.21;101352.78;4996393;28;45324;-80
2023/06/04 12:11:32;;;;;;;;;3.75;3.75;;;;;26.25;24.71;101368.03;4996501;28;45440;-79
2023/06/04 12:14:04;;;;;;;;;2.50;2.50;;;;;26.23;24.20;101352.72;4982610;28;45381;-82
2023/06/04 12:16:31;;;;;;;;;5.75;3.25;;;;;26.35;24.30;101352.38;4996760;28;45593;-79
2023/06/04 12:19:10;;;;;;;;;3.75;1.75;;;;;26.38;24.54;101338.28;4992074;28;46664;-78
2023/06/04 12:21:37;;;;;;;;;2.75;2.75;;;;;26.57;24.31;101355.63;4975108;28;45231;-75
2023/06/04 12:24:13;;;;;;;;;3.00;3.00;;;;;26.61;23.67;101346.94;4977530;28;45306;-76
2023/06/04 12:26:41;;;;;;;;;4.00;2.00;;;;;26.69;24.12;101337.88;4964671;28;45469;-75
2023/06/04 12:29:11;;;;;;;;;3.25;3.25;;;;;26.74;24.48;101333.59;4986619;28;46113;-75
2023/06/04 12:31:41;;;;;;;;;3.00;3.00;;;;;26.93;24.91;101343.56;4979206;28;45520;-75
2023/06/04 12:34:07;;;;;;;;;4.25;2.75;;;;;27.01;25.48;101346.38;4976253;28;45436;-76
2023/06/04 12:36:36;;;;;;;;;2.25;2.25;;;;;27.13;24.56;101352.47;4993443;28;45364;-73
2023/06/04 12:39:05;;;;;;;;;2.25;2.25;;;;;27.25;24.70;101351.16;4985070;28;46072;-73
2023/06/04 12:41:33;;;;;;;;;3.25;3.00;;;;;27.40;25.41;101351.41;4979882;28;45584;-76
2023/06/04 12:43:59;;;;;;;;;1.75;1.75;;;;;27.47;25.37;101336.84;4991132;28;45514;-75
2023/06/04 12:46:24;;;;;;;;;1.00;0.75;;;;;27.50;24.73;101339.22;4981500;28;45368;-79
2023/06/04 12:48:51;;;;;;;;;2.50;2.50;;;;;27.64;24.41;101347.94;4977511;28;47916;-72
2023/06/04 12:51:17;;;;;;;;;2.75;2.75;;;;;27.74;24.18;101345.88;4995629;28;45306;-78
2023/06/04 12:53:42;;;;;;;;;3.75;2.00;;;;;27.73;24.85;101328.50;4977919;28;45549;-75
2023/06/04 12:56:09;;;;;;;;;5.50;3.25;;;;;27.86;24.48;101330.78;4982268;28;45551;-78
2023/06/04 12:58:34;;;;;;;;;2.50;2.50;;;;;27.90;25.09;101337.69;4983037;28;45345;-77
2023/06/04 13:01:00;;;;;;;;;2.00;2.00;;;;;27.91;23.15;101335.78;4993324;28;45412;-76
2023/06/04 13:03:26;;;;;;;;;2.50;2.50;;;;;27.86;23.19;101344.56;4977126;28;45657;-73
2023/06/04 13:05:53;;;;;;;;;3.00;3.00;;;;;27.90;23.57;101334.09;4975782;28;45542;-72
2023/06/04 13:08:22;;;;;;;;;2.25;2.25;;;;;27.97;23.73;101329.63;4988142;28;45472;-74
2023/06/04 13:10:49;;;;;;;;;2.50;2.00;;;;;28.02;24.49;101314.28;4989458;28;45220;-75
2023/06/04 13:13:17;;;;;;;;;2.00;2.00;;;;;28.18;24.36;101324.50;4976890;28;45487;-75
2023/06/04 13:15:43;;;;;;;;;2.00;2.00;;;;;28.27;24.18;101330.88;4970126;28;45302;-74
2023/06/04 13:18:09;;;;;;;;;2.00;2.00;;;;;28.29;24.15;101321.41;4994927;28;45435;-74
2023/06/04 13:20:35;;;;;;;;;3.75;2.50;;;;;28.47;24.48;101333.16;4995306;28;45436;-74
2023/06/04 13:23:00;;;;;;;;;2.50;2.50;;;;;28.59;24.13;101331.75;4980638;28;45512;-75
2023/06/04 13:25:28;;;;;;;;;4.75;2.75;;;;;28.70;23.99;101327.78;4995402;28;45389;-76
2023/06/04 13:27:53;;;;;;;;;2.00;2.00;;;;;28.74;23.71;101326.41;4980776;28;46318;-74
2023/06/04 13:30:18;;;;;;;;;2.75;2.75;;;;;28.81;23.91;101321.94;4981955;28;45263;-77
2023/06/04 13:32:44;;;;;;;;;2.00;2.00;;;;;28.85;23.07;101334.34;4980348;28;45632;-73
2023/06/04 13:35:09;;;;;;;;;4.00;1.50;;;;;28.82;23.40;101318.16;4982049;28;45512;-75
2023/06/04 13:37:35;;;;;;;;;1.75;1.75;;;;;28.84;23.20;101326.25;4991747;28;45536;-78
2023/06/04 13:40:00;;;;;;;;;1.75;1.75;;;;;28.90;23.33;101315.38;4994967;28;45226;-75
2023/06/04 13:42:25;;;;;;;;;1.50;1.50;;;;;29.06;23.23;101321.91;4995443;28;45399;-76
2023/06/04 13:44:50;;;;;;;;;2.00;2.00;;;;;29.11;23.52;101317.56;4995008;28;51569;-76
2023/06/04 13:47:17;;;;;;;;;2.00;2.00;;;;;29.11;22.85;101305.66;4994755;28;53249;-76
2023/06/04 13:49:42;;;;;;;;;4.25;3.00;;;;;29.12;22.81;101310.13;4995016;28;45413;-75
2023/06/04 13:52:08;;;;;;;;;3.00;3.00;;;;;29.08;23.06;101317.06;4977137;28;45404;-75
2023/06/04 13:54:33;;;;;;;;;3.00;3.00;;;;;29.06;23.18;101297.03;4994695;28;55527;-76
2023/06/04 13:57:03;;;;;;;;;2.00;2.00;;;;;29.19;22.93;101314.75;4994882;28;45976;-76
2023/06/04 13:59:29;;;;;;;;;3.50;2.00;;;;;29.21;22.12;101311.84;4969648;28;45402;-76
2023/06/04 14:01:55;;;;;;;;;2.00;2.00;;;;;29.16;22.63;101301.34;4995037;28;45437;-76
2023/06/04 14:04:20;;;;;;;;;2.00;2.00;;;;;29.31;22.27;101316.13;4992489;28;49155;-74
2023/06/04 14:06:46;;;;;;;;;3.00;2.00;;;;;29.29;22.83;101317.31;4993788;28;46212;-73
2023/06/04 14:09:12;;;;;;;;;3.00;2.50;;;;;29.27;22.39;101317.50;4992017;28;46057;-76
2023/06/04 14:11:39;;;;;;;;;1.50;1.50;;;;;29.29;22.32;101312.66;4989892;28;45430;-75
2023/06/04 14:14:04;;;;;;;;;2.50;2.50;;;;;29.28;22.03;101304.56;4977278;28;45551;-74
2023/06/04 14:16:30;;;;;;;;;2.75;2.75;;;;;29.29;21.80;101307.16;4968116;28;45363;-73
2023/06/04 14:18:55;;;;;;;;;2.25;2.25;;;;;29.35;22.46;101300.03;4963218;28;45390;-74
2023/06/04 14:21:21;;;;;;;;;3.00;3.00;;;;;29.45;22.05;101289.66;4994762;28;45489;-75
2023/06/04 14:23:47;;;;;;;;;1.00;1.00;;;;;29.47;22.17;101292.25;4994172;28;45539;-75
2023/06/04 14:26:14;;;;;;;;;3.00;3.00;;;;;29.55;22.24;101279.25;4994321;28;46435;-74
2023/06/04 14:28:39;;;;;;;;;3.00;2.00;;;;;29.52;21.20;101278.78;4994262;28;45361;-74
2023/06/04 14:31:04;;;;;;;;;1.50;1.50;;;;;29.53;20.95;101291.53;4994511;28;45180;-74
2023/06/04 14:33:30;;;;;;;;;1.75;1.75;;;;;29.52;21.41;101285.13;4987616;28;45472;-76
2023/06/04 14:35:55;;;;;;;;;3.25;2.25;;;;;29.53;21.60;101266.66;4987918;28;46457;-75
2023/06/04 14:38:21;;;;;;;;;2.00;1.00;;;;;29.59;21.54;101261.28;4965932;28;45299;-74
2023/06/04 14:40:46;;;;;;;;;2.00;2.00;;;;;29.68;20.76;101284.22;4971762;28;45404;-73
2023/06/04 14:43:12;;;;;;;;;3.75;2.50;;;;;29.63;21.07;101276.44;4968807;28;45479;-77
2023/06/04 14:45:40;;;;;;;;;2.00;2.00;;;;;29.68;21.25;101293.38;4994294;28;45869;-77
2023/06/04 14:48:06;;;;;;;;;2.00;2.00;;;;;29.70;21.34;101277.44;4995013;28;45327;-76
2023/06/04 14:50:31;;;;;;;;;3.00;2.00;;;;;29.76;22.09;101280.53;4995085;28;45522;-76
2023/06/04 14:52:57;;;;;;;;;2.00;2.00;;;;;29.79;21.61;101281.00;4976816;28;45565;-75
2023/06/04 14:55:23;;;;;;;;;1.75;1.75;;;;;29.84;21.35;101274.97;4993838;28;48359;-76
2023/06/04 14:57:50;;;;;;;;;2.50;2.00;;;;;29.88;21.38;101276.28;4987684;28;45317;-75
2023/06/04 15:00:15;;;;;;;;;1.00;1.00;;;;;29.91;20.80;101257.44;4987680;28;45389;-75
2023/06/04 15:02:41;;;;;;;;;2.00;2.00;;;;;29.88;20.33;101260.56;4993576;28;45399;-75
2023/06/04 15:05:07;;;;;;;;;1.50;1.50;;;;;29.99;20.74;101273.16;4994343;28;46049;-76
2023/06/04 15:07:32;;;;;;;;;2.00;2.00;;;;;30.02;20.44;101276.41;4993902;28;45402;-75
2023/06/04 15:09:57;;;;;;;;;3.00;2.00;;;;;30.06;20.16;101271.38;4994325;28;46756;-75
2023/06/04 15:12:23;;;;;;;;;2.75;2.00;;;;;30.05;21.00;101267.72;4994006;28;45448;-76
2023/06/04 15:14:48;;;;;;;;;1.25;1.25;;;;;29.92;20.51;101238.97;4994179;28;45848;-77
2023/06/04 15:17:13;;;;;;;;;2.50;1.75;;;;;30.13;20.49;101274.25;4976231;28;45576;-75
2023/06/04 15:19:39;;;;;;;;;0.75;0.75;;;;;30.12;20.65;101255.94;4994306;28;45389;-76
2023/06/04 15:22:04;;;;;;;;;2.50;2.00;;;;;30.17;19.99;101261.78;4993686;28;45427;-76
2023/06/04 15:24:29;;;;;;;;;2.00;2.00;;;;;30.08;20.30;101263.75;4976137;28;47158;-76
2023/06/04 15:26:57;;;;;;;;;2.25;2.25;;;;;30.10;20.54;101267.19;4994596;28;45382;-76
2023/06/04 15:29:22;;;;;;;;;2.00;2.00;;;;;30.12;20.41;101273.38;4997501;28;45349;-76
2023/06/04 15:31:47;;;;;;;;;3.25;1.50;;;;;30.18;20.95;101271.81;4996636;28;45455;-77
2023/06/04 15:34:13;;;;;;;;;1.75;1.25;;;;;30.28;21.02;101267.75;4985849;28;45519;-76
2023/06/04 15:36:38;;;;;;;;;1.50;1.50;;;;;30.34;20.48;101264.22;4995975;28;45275;-77
2023/06/04 15:39:04;;;;;;;;;2.75;1.50;;;;;30.47;19.88;101274.63;4997340;28;45273;-76
2023/06/04 15:41:29;;;;;;;;;5.00;3.00;;;;;30.43;20.59;101268.63;4996750;28;45612;-77
2023/06/04 15:43:55;;;;;;;;;5.00;2.00;;;;;30.52;20.24;101274.13;4997044;28;45587;-77
2023/06/04 15:46:24;;;;;;;;;2.00;2.00;;;;;30.38;20.60;101256.41;4996696;28;45282;-77
2023/06/04 15:48:49;;;;;;;;;1.75;1.75;;;;;30.47;20.76;101269.09;4997142;28;45543;-76
2023/06/04 15:51:15;;;;;;;;;2.00;2.00;;;;;30.50;20.36;101274.28;4996570;28;45655;-76
2023/06/04 15:53:40;;;;;;;;;3.25;2.00;;;;;30.51;20.14;101270.50;4996629;28;45934;-77